Daglege Rapportar

Klikk her for oppdatering!


Detaljar i dag

28/11/21
Time         Wind Dir   Wind Spd  Wind Gust   Humidity       Temp  Raw Barom   Tot Rain Temp Out H Temp Out L  DailyRain   HourRain
                            mps        mps          %         C         mb         mm         C         C         mm         mm
0:00              360          1          3         65       -2.2    1007.27     569.00       -2.2       -2.2       0.00       0.00

 


Detaljar i gr

27/11/21
Time         Wind Dir   Wind Spd  Wind Gust   Humidity       Temp  Raw Barom   Tot Rain Temp Out H Temp Out L  DailyRain   HourRain
                            mps        mps          %         C         mb         mm         C         C         mm         mm
0:00              360          0          1         66       -1.6    1002.24     569.00       -1.6       -1.6       0.00       0.00
1:00              360          1          2         69       -1.6    1002.40     569.00       -1.5       -1.8       0.00       0.00
2:00              360          1          3         69       -1.1    1002.44     569.00       -1.1       -1.8       0.00       0.00
3:00              360          1          3         69       -0.9    1002.51     569.00       -0.9       -1.8       0.00       0.00
4:00              360          1          1         68       -0.8    1002.74     569.00       -0.8       -1.8       0.00       0.00
5:00              360          0          1         69       -0.9    1003.22     569.00       -0.8       -1.8       0.00       0.00
6:00              360          0          1         67       -1.2    1003.42     569.00       -0.6       -1.8       0.00       0.00
7:00              360          0          1         67       -0.9    1003.82     569.00       -0.6       -1.8       0.00       0.00
8:00              360          1          2         67       -0.7    1004.36     569.00       -0.6       -1.8       0.00       0.00
9:00              360          0          1         66       -0.6    1005.01     569.00       -0.3       -1.8       0.00       0.00
10:00             360          0          1         67       -0.2    1005.51     569.00       -0.1       -1.8       0.00       0.00
11:00             360          0          1         68       -0.1    1005.78     569.00        0.1       -1.8       0.00       0.00
12:00             360          0          3         70        0.3    1006.02     569.00        0.3       -1.8       0.00       0.00
13:00             360          0          2         72       -0.1    1006.32     569.00        0.3       -1.8       0.00       0.00
14:00             360          0          3         78       -0.3    1006.53     569.00        0.3       -1.8       0.00       0.00
15:00             360          1          2         78       -0.5    1006.59     569.00        0.3       -1.8       0.00       0.00
16:00             360          0          0         75       -1.1    1006.70     569.00        0.3       -1.8       0.00       0.00
17:00             360          0          2         76       -1.8    1006.97     569.00        0.3       -1.9       0.00       0.00
18:00             360          1          4         69       -1.4    1007.24     569.00        0.3       -1.9       0.00       0.00
19:00             360          1          4         69       -1.7    1007.37     569.00        0.3       -1.9       0.00       0.00
20:00             360          1          4         68       -1.8    1007.44     569.00        0.3       -1.9       0.00       0.00
21:00             360          0          4         66       -1.9    1007.30     569.00        0.3       -2.1       0.00       0.00
22:00             360          2          4         67       -2.0    1007.24     569.00        0.3       -2.3       0.00       0.00
23:00             360          1          4         66       -1.8    1007.24     569.00        0.3       -2.3       0.00       0.00